Time;durP1;ratioP1;P1;durP2;ratioP2;P2;SDS_P1;SDS_P2;PMS_P1;PMS_P2;Temp;Humidity;BMP_temperature;BMP_pressure;BME280_temperature;BME280_humidity;BME280_pressure;Samples;Min_cycle;Max_cycle;Signal;HPM_P1;HPM_P2
2022/02/24 00:01:12;;;;;;;;;;;;;;;;;;4811092;28;19921;-63
2022/02/24 00:03:38;;;;;;;;;;;;;;;;;;4809407;28;20063;-65
2022/02/24 00:06:04;;;;;;;;;;;;;;;;;;4811680;28;19977;-64
2022/02/24 00:08:30;;;;;;;;;;;;;;;;;;4813009;28;20622;-64
2022/02/24 00:10:56;;;;;;;;;;;;;;;;;;4813210;28;20975;-63
2022/02/24 00:13:22;;;;;;;;;;;;;;;;;;4812819;28;19922;-64
2022/02/24 00:15:48;;;;;;;;;;;;;;;;;;4812790;28;20786;-64
2022/02/24 00:18:14;;;;;;;;;;;;;;;;;;4809731;28;20115;-64
2022/02/24 00:20:40;;;;;;;;;;;;;;;;;;4810002;28;19921;-63
2022/02/24 00:23:06;;;;;;;;;;;;;;;;;;4788122;28;20618;-64
2022/02/24 00:25:33;;;;;;;;;;;;;;;;;;4808818;28;19922;-62
2022/02/24 00:28:00;;;;;;;;;;;;;;;;;;4809828;28;20773;-63
2022/02/24 00:30:26;;;;;;;;;;;;;;;;;;4812149;28;20528;-63
2022/02/24 00:32:53;;;;;;;;;;;;;;;;;;4818224;28;19921;-63
2022/02/24 00:35:19;;;;;;;;;;;;;;;;;;4817428;28;19964;-63
2022/02/24 00:37:45;;;;;;;;;;;;;;;;;;4813085;28;19922;-63
2022/02/24 00:40:11;;;;;;;;;;;;;;;;;;4808360;28;19932;-63
2022/02/24 00:42:38;;;;;;;;;;;;;;;;;;4817157;28;20144;-63
2022/02/24 00:45:04;;;;;;;;;;;;;;;;;;4812151;28;20223;-64
2022/02/24 00:47:30;;;;;;;;;;;;;;;;;;4812930;28;21521;-64
2022/02/24 00:49:56;;;;;;;;;;;;;;;;;;4813933;28;20329;-65
2022/02/24 00:52:22;;;;;;;;;;;;;;;;;;4810581;28;21180;-65
2022/02/24 00:54:48;;;;;;;;;;;;;;;;;;4818133;28;19918;-64
2022/02/24 00:57:14;;;;;;;;;;;;;;;;;;4818433;28;19925;-64
2022/02/24 00:59:40;;;;;;;;;;;;;;;;;;4794173;28;19932;-64
2022/02/24 01:02:06;;;;;;;;;;;;;;;;;;4814579;28;19980;-64
2022/02/24 01:04:32;;;;;;;;;;;;;;;;;;4814224;28;20658;-64
2022/02/24 01:06:59;;;;;;;;;;;;;;;;;;4812583;28;21456;-65
2022/02/24 01:09:25;;;;;;;;;;;;;;;;;;4813300;28;20569;-65
2022/02/24 01:11:51;;;;;;;;;;;;;;;;;;4818992;28;21637;-64
2022/02/24 01:14:17;;;;;;;;;;;;;;;;;;4795695;28;19928;-63
2022/02/24 01:16:43;;;;;;;;;;;;;;;;;;4795043;28;20108;-63
2022/02/24 01:19:09;;;;;;;;;;;;;;;;;;4814703;28;19925;-63
2022/02/24 01:21:35;;;;;;;;;;;;;;;;;;4807337;28;19963;-63
2022/02/24 01:24:01;;;;;;;;;;;;;;;;;;4792563;28;20617;-63
2022/02/24 01:26:27;;;;;;;;;;;;;;;;;;4817459;28;19922;-65
2022/02/24 01:28:54;;;;;;;;;;;;;;;;;;4854065;28;19969;-64
2022/02/24 01:31:20;;;;;;;;;;;;;;;;;;4956324;28;19917;-63
2022/02/24 01:33:46;;;;;;;;;;;;;;;;;;4970394;28;19918;-63
2022/02/24 01:36:12;;;;;;;;;;;;;;;;;;4964943;28;19972;-63
2022/02/24 01:38:39;;;;;;;;;;;;;;;;;;4954433;28;19925;-63
2022/02/24 01:41:05;;;;;;;;;;;;;;;;;;4963243;28;19968;-64
2022/02/24 01:43:33;;;;;;;;;;;;;;;;;;4968551;28;20032;-64
2022/02/24 01:45:59;;;;;;;;;;;;;;;;;;4950690;28;20292;-64
2022/02/24 01:48:27;;;;;;;;;;;;;;;;;;4968890;28;19925;-64
2022/02/24 01:50:53;;;;;;;;;;;;;;;;;;4963911;28;19922;-64
2022/02/24 01:53:19;;;;;;;;;;;;;;;;;;4968200;28;19928;-64
2022/02/24 01:55:45;;;;;;;;;;;;;;;;;;4970598;28;20027;-64
2022/02/24 01:58:11;;;;;;;;;;;;;;;;;;4966187;28;21078;-64
2022/02/24 02:00:40;;;;;;;;;;;;;;;;;;4964556;28;20047;-64
2022/02/24 02:03:06;;;;;;;;;;;;;;;;;;4964582;28;19922;-64
2022/02/24 02:05:33;;;;;;;;;;;;;;;;;;4971557;28;21330;-64
2022/02/24 02:08:00;;;;;;;;;;;;;;;;;;4966497;28;19925;-64
2022/02/24 02:10:27;;;;;;;;;;;;;;;;;;4968463;28;20016;-64
2022/02/24 02:12:55;;;;;;;;;;;;;;;;;;4954823;28;20041;-64
2022/02/24 02:15:21;;;;;;;;;;;;;;;;;;4969195;28;19925;-65
2022/02/24 02:17:47;;;;;;;;;;;;;;;;;;4953113;28;19922;-64
2022/02/24 02:20:14;;;;;;;;;;;;;;;;;;4968291;28;19921;-64
2022/02/24 02:22:42;;;;;;;;;;;;;;;;;;4956026;28;19926;-64
2022/02/24 02:25:09;;;;;;;;;;;;;;;;;;4960273;28;19929;-64
2022/02/24 02:27:36;;;;;;;;;;;;;;;;;;4954659;28;19972;-64
2022/02/24 02:30:02;;;;;;;;;;;;;;;;;;4965533;28;19922;-65
2022/02/24 02:32:28;;;;;;;;;;;;;;;;;;4965727;28;19918;-64
2022/02/24 02:34:55;;;;;;;;;;;;;;;;;;4963910;28;19917;-64
2022/02/24 02:37:23;;;;;;;;;;;;;;;;;;4953943;28;19917;-64
2022/02/24 02:39:49;;;;;;;;;;;;;;;;;;4966147;28;19918;-64
2022/02/24 02:42:15;;;;;;;;;;;;;;;;;;4970434;28;19917;-64
2022/02/24 02:44:41;;;;;;;;;;;;;;;;;;4967835;28;19921;-64
2022/02/24 02:47:08;;;;;;;;;;;;;;;;;;4949923;28;19922;-64
2022/02/24 02:49:34;;;;;;;;;;;;;;;;;;4971993;28;20396;-63
2022/02/24 02:52:00;;;;;;;;;;;;;;;;;;4960284;28;19924;-63
2022/02/24 02:54:26;;;;;;;;;;;;;;;;;;4952606;28;19922;-64
2022/02/24 02:56:52;;;;;;;;;;;;;;;;;;4964844;28;20017;-63
2022/02/24 02:59:20;;;;;;;;;;;;;;;;;;4964768;28;19926;-63
2022/02/24 03:01:47;;;;;;;;;;;;;;;;;;4966128;28;19917;-64
2022/02/24 03:04:14;;;;;;;;;;;;;;;;;;4965999;28;19950;-63
2022/02/24 03:06:41;;;;;;;;;;;;;;;;;;4965423;28;20614;-64
2022/02/24 03:09:09;;;;;;;;;;;;;;;;;;4964544;28;19917;-64
2022/02/24 03:11:35;;;;;;;;;;;;;;;;;;4970062;28;19929;-63
2022/02/24 03:14:02;;;;;;;;;;;;;;;;;;4960788;28;19917;-64
2022/02/24 03:16:28;;;;;;;;;;;;;;;;;;4970406;28;19968;-63
2022/02/24 03:18:54;;;;;;;;;;;;;;;;;;4964826;28;19941;-63
2022/02/24 03:21:21;;;;;;;;;;;;;;;;;;4965863;28;20028;-63
2022/02/24 03:23:49;;;;;;;;;;;;;;;;;;4966637;28;19968;-65
2022/02/24 03:26:15;;;;;;;;;;;;;;;;;;4962758;28;19949;-64
2022/02/24 03:28:41;;;;;;;;;;;;;;;;;;4968352;28;19929;-65
2022/02/24 03:31:07;;;;;;;;;;;;;;;;;;4964231;28;20716;-65
2022/02/24 03:33:34;;;;;;;;;;;;;;;;;;4951366;28;19920;-63
2022/02/24 03:36:00;;;;;;;;;;;;;;;;;;4961053;28;19918;-63
2022/02/24 03:38:27;;;;;;;;;;;;;;;;;;4970125;28;19917;-64
2022/02/24 03:40:53;;;;;;;;;;;;;;;;;;4963390;28;19921;-63
2022/02/24 03:43:19;;;;;;;;;;;;;;;;;;4961422;28;19951;-63
2022/02/24 03:45:45;;;;;;;;;;;;;;;;;;4966035;28;19976;-63
2022/02/24 03:48:11;;;;;;;;;;;;;;;;;;4947238;28;20033;-63
2022/02/24 03:50:38;;;;;;;;;;;;;;;;;;4974032;28;19929;-63
2022/02/24 03:53:04;;;;;;;;;;;;;;;;;;4961790;28;19917;-63
2022/02/24 03:55:30;;;;;;;;;;;;;;;;;;4966455;28;19918;-63
2022/02/24 03:57:56;;;;;;;;;;;;;;;;;;4967522;28;20471;-63
2022/02/24 04:00:24;;;;;;;;;;;;;;;;;;4967896;28;19953;-63
2022/02/24 04:02:50;;;;;;;;;;;;;;;;;;4965041;28;19922;-63
2022/02/24 04:05:16;;;;;;;;;;;;;;;;;;4971696;28;19944;-63
2022/02/24 04:07:43;;;;;;;;;;;;;;;;;;4963254;28;20041;-64
2022/02/24 04:10:09;;;;;;;;;;;;;;;;;;4948228;28;21044;-63
2022/02/24 04:12:35;;;;;;;;;;;;;;;;;;4971224;28;19921;-63
2022/02/24 04:15:01;;;;;;;;;;;;;;;;;;4960293;28;19918;-63
2022/02/24 04:17:27;;;;;;;;;;;;;;;;;;4970801;28;19972;-63
2022/02/24 04:19:53;;;;;;;;;;;;;;;;;;4962735;28;19921;-63
2022/02/24 04:22:19;;;;;;;;;;;;;;;;;;4965254;28;19956;-64
2022/02/24 04:24:46;;;;;;;;;;;;;;;;;;4968100;28;20992;-63
2022/02/24 04:27:13;;;;;;;;;;;;;;;;;;4963121;28;19925;-63
2022/02/24 04:29:40;;;;;;;;;;;;;;;;;;4951743;28;19971;-63
2022/02/24 04:32:07;;;;;;;;;;;;;;;;;;4972046;28;19918;-63
2022/02/24 04:34:33;;;;;;;;;;;;;;;;;;4966475;28;19918;-63
2022/02/24 04:36:59;;;;;;;;;;;;;;;;;;4962606;28;19965;-63
2022/02/24 04:39:27;;;;;;;;;;;;;;;;;;4969447;28;20632;-63
2022/02/24 04:41:53;;;;;;;;;;;;;;;;;;4947132;28;19957;-63
2022/02/24 04:44:19;;;;;;;;;;;;;;;;;;4965300;28;20004;-64
2022/02/24 04:46:45;;;;;;;;;;;;;;;;;;4968706;28;20022;-63
2022/02/24 04:49:11;;;;;;;;;;;;;;;;;;4946727;28;19924;-63
2022/02/24 04:51:38;;;;;;;;;;;;;;;;;;4971179;28;19957;-63
2022/02/24 04:54:06;;;;;;;;;;;;;;;;;;4964928;28;19918;-63
2022/02/24 04:56:32;;;;;;;;;;;;;;;;;;4965439;28;19953;-63
2022/02/24 04:59:00;;;;;;;;;;;;;;;;;;4965885;28;19922;-64
2022/02/24 05:01:28;;;;;;;;;;;;;;;;;;4963285;28;19924;-64
2022/02/24 05:03:54;;;;;;;;;;;;;;;;;;4962237;28;19930;-64
2022/02/24 05:06:20;;;;;;;;;;;;;;;;;;4967850;28;19922;-64
2022/02/24 05:08:46;;;;;;;;;;;;;;;;;;4964421;28;19924;-64
2022/02/24 05:11:12;;;;;;;;;;;;;;;;;;4946048;28;19929;-64
2022/02/24 05:13:38;;;;;;;;;;;;;;;;;;4966772;28;19956;-64
2022/02/24 05:16:05;;;;;;;;;;;;;;;;;;4960578;28;19918;-64
2022/02/24 05:18:32;;;;;;;;;;;;;;;;;;4964967;28;20008;-63
2022/02/24 05:20:58;;;;;;;;;;;;;;;;;;4947830;28;20792;-64
2022/02/24 05:23:25;;;;;;;;;;;;;;;;;;4964784;28;19925;-64
2022/02/24 05:25:52;;;;;;;;;;;;;;;;;;4946393;28;19922;-64
2022/02/24 05:28:18;;;;;;;;;;;;;;;;;;4967089;28;19917;-64
2022/02/24 05:30:44;;;;;;;;;;;;;;;;;;4959893;28;19918;-63
2022/02/24 05:33:10;;;;;;;;;;;;;;;;;;4956088;28;20604;-63
2022/02/24 05:35:37;;;;;;;;;;;;;;;;;;4961056;28;19921;-64
2022/02/24 05:38:04;;;;;;;;;;;;;;;;;;4955810;28;20439;-64
2022/02/24 05:40:32;;;;;;;;;;;;;;;;;;4959961;28;19972;-64
2022/02/24 05:42:58;;;;;;;;;;;;;;;;;;4961906;28;20725;-64
2022/02/24 05:45:25;;;;;;;;;;;;;;;;;;4965199;28;19925;-63
2022/02/24 05:47:52;;;;;;;;;;;;;;;;;;4946768;28;19925;-64
2022/02/24 05:50:19;;;;;;;;;;;;;;;;;;4962521;28;19953;-64
2022/02/24 05:52:45;;;;;;;;;;;;;;;;;;4948084;28;19972;-64
2022/02/24 05:55:13;;;;;;;;;;;;;;;;;;4956958;28;19922;-63
2022/02/24 05:57:39;;;;;;;;;;;;;;;;;;4966607;28;19917;-64
2022/02/24 06:00:05;;;;;;;;;;;;;;;;;;4960602;28;20191;-64
2022/02/24 06:02:31;;;;;;;;;;;;;;;;;;4973804;28;19922;-63
2022/02/24 06:04:58;;;;;;;;;;;;;;;;;;4962055;28;19917;-64
2022/02/24 06:07:25;;;;;;;;;;;;;;;;;;4970391;28;19964;-63
2022/02/24 06:09:51;;;;;;;;;;;;;;;;;;4965190;28;19918;-63
2022/02/24 06:12:18;;;;;;;;;;;;;;;;;;4967878;28;20350;-63
2022/02/24 06:14:44;;;;;;;;;;;;;;;;;;4969549;28;20170;-64
2022/02/24 06:17:10;;;;;;;;;;;;;;;;;;4968505;28;20773;-63
2022/02/24 06:19:37;;;;;;;;;;;;;;;;;;4953461;28;19949;-64
2022/02/24 06:22:02;;;;;;;;;;;;;;;;;;4954227;28;19926;-63
2022/02/24 06:24:29;;;;;;;;;;;;;;;;;;4965612;28;19961;-63
2022/02/24 06:26:56;;;;;;;;;;;;;;;;;;4964729;28;19937;-63
2022/02/24 06:29:22;;;;;;;;;;;;;;;;;;4973150;28;20021;-64
2022/02/24 06:31:48;;;;;;;;;;;;;;;;;;4970054;28;19932;-63
2022/02/24 06:34:14;;;;;;;;;;;;;;;;;;4950870;28;20301;-63
2022/02/24 06:36:41;;;;;;;;;;;;;;;;;;4967290;28;19918;-63
2022/02/24 06:39:07;;;;;;;;;;;;;;;;;;4963989;28;19933;-63
2022/02/24 06:41:33;;;;;;;;;;;;;;;;;;4966118;28;19921;-63
2022/02/24 06:43:59;;;;;;;;;;;;;;;;;;4969952;28;20304;-63
2022/02/24 06:46:25;;;;;;;;;;;;;;;;;;4968274;28;20019;-64
2022/02/24 06:48:53;;;;;;;;;;;;;;;;;;4962836;28;20454;-64
2022/02/24 06:51:20;;;;;;;;;;;;;;;;;;4968332;28;19922;-64
2022/02/24 06:53:47;;;;;;;;;;;;;;;;;;4963895;28;20429;-64
2022/02/24 06:56:13;;;;;;;;;;;;;;;;;;4964550;28;19926;-64
2022/02/24 06:58:39;;;;;;;;;;;;;;;;;;4972816;28;20892;-63
2022/02/24 07:01:05;;;;;;;;;;;;;;;;;;4950461;28;20630;-64
2022/02/24 07:03:31;;;;;;;;;;;;;;;;;;4971766;28;20473;-63
2022/02/24 07:05:57;;;;;;;;;;;;;;;;;;4963990;28;19968;-64
2022/02/24 07:08:24;;;;;;;;;;;;;;;;;;4965624;28;20017;-64
2022/02/24 07:10:50;;;;;;;;;;;;;;;;;;4969098;28;19925;-64
2022/02/24 07:13:18;;;;;;;;;;;;;;;;;;4963848;28;19918;-65
2022/02/24 07:15:44;;;;;;;;;;;;;;;;;;4965743;28;20019;-63
2022/02/24 07:18:11;;;;;;;;;;;;;;;;;;4953541;28;20526;-64
2022/02/24 07:20:37;;;;;;;;;;;;;;;;;;4964570;28;19922;-63
2022/02/24 07:23:03;;;;;;;;;;;;;;;;;;4946606;28;19929;-64
2022/02/24 07:25:29;;;;;;;;;;;;;;;;;;4966250;28;19926;-63
2022/02/24 07:27:55;;;;;;;;;;;;;;;;;;4958517;28;19925;-64
2022/02/24 07:30:21;;;;;;;;;;;;;;;;;;4967811;28;19980;-63
2022/02/24 07:32:47;;;;;;;;;;;;;;;;;;4967859;28;19922;-63
2022/02/24 07:35:13;;;;;;;;;;;;;;;;;;4962065;28;20199;-64
2022/02/24 07:37:39;;;;;;;;;;;;;;;;;;4961531;28;20016;-64
2022/02/24 07:40:05;;;;;;;;;;;;;;;;;;4960087;28;19922;-64
2022/02/24 07:42:34;;;;;;;;;;;;;;;;;;4950335;28;19976;-64
2022/02/24 07:45:01;;;;;;;;;;;;;;;;;;4959227;28;19925;-64
2022/02/24 07:47:27;;;;;;;;;;;;;;;;;;4962741;28;19925;-64
2022/02/24 07:49:53;;;;;;;;;;;;;;;;;;4969020;28;20255;-64
2022/02/24 07:52:22;;;;;;;;;;;;;;;;;;4964986;28;19918;-64
2022/02/24 07:54:49;;;;;;;;;;;;;;;;;;4960920;28;20407;-64
2022/02/24 07:57:15;;;;;;;;;;;;;;;;;;4969087;28;19950;-65
2022/02/24 07:59:41;;;;;;;;;;;;;;;;;;4962247;28;19921;-64
2022/02/24 08:02:07;;;;;;;;;;;;;;;;;;4956122;28;20495;-64
2022/02/24 08:04:33;;;;;;;;;;;;;;;;;;4959643;28;19926;-64
2022/02/24 08:06:59;;;;;;;;;;;;;;;;;;4950956;28;19930;-64
2022/02/24 08:09:26;;;;;;;;;;;;;;;;;;4961569;28;19918;-64
2022/02/24 08:14:38;;;;;;;;;;;;;;;;;;4956557;28;19929;-60
2022/02/24 08:17:05;;;;;;;;;;;;;;;;;;4950945;28;19929;-60
2022/02/24 08:19:33;;;;;;;;;;;;;;;;;;4946150;28;20389;-60
2022/02/24 08:22:00;;;;;;;;;;;;;;;;;;4959086;28;19917;-61
2022/02/24 08:24:27;;;;;;;;;;;;;;;;;;4963619;28;20495;-61
2022/02/24 08:26:54;;;;;;;;;;;;;;;;;;4962002;28;19929;-60
2022/02/24 08:29:22;;;;;;;;;;;;;;;;;;4965516;28;19925;-60
2022/02/24 08:31:48;;;;;;;;;;;;;;;;;;4963907;28;19918;-60
2022/02/24 08:34:13;;;;;;;;;;;;;;;;;;4965081;28;19918;-61
2022/02/24 08:36:41;;;;;;;;;;;;;;;;;;4961428;28;19992;-60
2022/02/24 08:39:08;;;;;;;;;;;;;;;;;;4945363;28;20274;-61
2022/02/24 08:41:35;;;;;;;;;;;;;;;;;;4970826;28;19918;-61
2022/02/24 08:44:01;;;;;;;;;;;;;;;;;;4958977;28;20025;-61
2022/02/24 08:46:27;;;;;;;;;;;;;;;;;;4967786;28;20649;-61
2022/02/24 08:48:53;;;;;;;;;;;;;;;;;;4962230;28;19918;-61
2022/02/24 08:51:19;;;;;;;;;;;;;;;;;;4964901;28;20659;-62
2022/02/24 08:53:45;;;;;;;;;;;;;;;;;;4965485;28;19933;-61
2022/02/24 08:56:11;;;;;;;;;;;;;;;;;;4946604;28;19925;-61
2022/02/24 08:58:37;;;;;;;;;;;;;;;;;;4946689;28;19922;-61
2022/02/24 09:01:03;;;;;;;;;;;;;;;;;;4963247;28;19926;-61
2022/02/24 09:03:31;;;;;;;;;;;;;;;;;;4963572;28;19930;-61
2022/02/24 09:05:57;;;;;;;;;;;;;;;;;;4956415;28;19918;-61
2022/02/24 09:08:23;;;;;;;;;;;;;;;;;;4964698;28;19964;-61
2022/02/24 09:10:49;;;;;;;;;;;;;;;;;;4962423;28;19925;-63
2022/02/24 09:13:15;;;;;;;;;;;;;;;;;;4959481;28;19917;-62
2022/02/24 09:15:43;;;;;;;;;;;;;;;;;;4965146;28;19918;-62
2022/02/24 09:18:09;;;;;;;;;;;;;;;;;;4957988;28;20057;-62
2022/02/24 09:20:35;;;;;;;;;;;;;;;;;;4960631;28;19914;-62
2022/02/24 09:23:01;;;;;;;;;;;;;;;;;;4945712;28;19961;-65
2022/02/24 09:25:28;;;;;;;;;;;;;;;;;;4959900;28;20330;-62
2022/02/24 09:27:54;;;;;;;;;;;;;;;;;;4952485;28;20426;-63
2022/02/24 09:30:19;;;;;;;;;;;;;;;;;;4959394;28;20436;-63
2022/02/24 09:32:47;;;;;;;;;;;;;;;;;;4959771;28;19918;-62
2022/02/24 09:35:17;;;;;;;;;;;;;;;;;;4948701;28;20016;-62
2022/02/24 09:37:58;;;;;;;;;;;;;;;;;;4957891;28;19918;-63
2022/02/24 09:40:25;;;;;;;;;;;;;;;;;;4964212;28;19918;-63
2022/02/24 09:42:51;;;;;;;;;;;;;;;;;;4962712;28;19922;-63
2022/02/24 09:45:20;;;;;;;;;;;;;;;;;;4965555;28;20004;-63
2022/02/24 09:47:46;;;;;;;;;;;;;;;;;;4964023;28;19917;-63
2022/02/24 09:50:12;;;;;;;;;;;;;;;;;;4951480;28;19921;-63
2022/02/24 09:52:38;;;;;;;;;;;;;;;;;;4967500;28;19918;-63
2022/02/24 09:55:06;;;;;;;;;;;;;;;;;;4962555;28;20572;-65
2022/02/24 09:57:32;;;;;;;;;;;;;;;;;;4969276;28;19928;-64
2022/02/24 10:00:01;;;;;;;;;;;;;;;;;;4947863;28;19918;-65
2022/02/24 10:02:27;;;;;;;;;;;;;;;;;;4959037;28;19925;-64
2022/02/24 10:04:53;;;;;;;;;;;;;;;;;;4940891;28;19929;-65
2022/02/24 10:07:19;;;;;;;;;;;;;;;;;;4964722;28;19922;-65
2022/02/24 10:09:45;;;;;;;;;;;;;;;;;;4971003;28;19922;-65
2022/02/24 10:12:11;;;;;;;;;;;;;;;;;;4960037;28;19918;-65
2022/02/24 10:14:37;;;;;;;;;;;;;;;;;;4949766;28;19918;-65
2022/02/24 10:17:04;;;;;;;;;;;;;;;;;;4965154;28;20377;-64
2022/02/24 10:19:31;;;;;;;;;;;;;;;;;;4954016;28;20509;-64
2022/02/24 10:21:57;;;;;;;;;;;;;;;;;;4959644;28;19918;-64
2022/02/24 10:24:23;;;;;;;;;;;;;;;;;;4967269;28;20652;-64
2022/02/24 10:26:52;;;;;;;;;;;;;;;;;;4960260;28;20472;-64
2022/02/24 10:29:22;;;;;;;;;;;;;;;;;;4964498;28;20166;-65
2022/02/24 10:31:48;;;;;;;;;;;;;;;;;;4965034;28;19926;-64
2022/02/24 10:34:17;;;;;;;;;;;;;;;;;;4966641;28;19922;-64
2022/02/24 10:36:43;;;;;;;;;;;;;;;;;;4967351;28;19914;-64
2022/02/24 10:39:10;;;;;;;;;;;;;;;;;;4964393;28;19922;-64
2022/02/24 10:41:36;;;;;;;;;;;;;;;;;;4966477;28;20004;-64
2022/02/24 10:44:02;;;;;;;;;;;;;;;;;;4962350;28;19944;-64
2022/02/24 10:46:29;;;;;;;;;;;;;;;;;;4966606;28;20772;-63
2022/02/24 10:48:56;;;;;;;;;;;;;;;;;;4961884;28;19988;-64
2022/02/24 10:51:21;;;;;;;;;;;;;;;;;;4951276;28;20555;-64
2022/02/24 10:53:49;;;;;;;;;;;;;;;;;;4966541;28;19981;-63
2022/02/24 10:56:15;;;;;;;;;;;;;;;;;;4965042;28;19925;-63
2022/02/24 10:58:42;;;;;;;;;;;;;;;;;;4963880;28;20172;-63
2022/02/24 11:01:08;;;;;;;;;;;;;;;;;;4966024;28;19917;-62
2022/02/24 11:03:34;;;;;;;;;;;;;;;;;;4966257;28;19925;-64
2022/02/24 11:06:01;;;;;;;;;;;;;;;;;;4962627;28;19929;-63
2022/02/24 11:08:27;;;;;;;;;;;;;;;;;;4968952;28;20464;-64
2022/02/24 11:10:53;;;;;;;;;;;;;;;;;;4958815;28;19924;-64
2022/02/24 11:13:19;;;;;;;;;;;;;;;;;;4968080;28;20608;-64
2022/02/24 11:15:45;;;;;;;;;;;;;;;;;;4975814;28;19913;-66
2022/02/24 11:18:11;;;;;;;;;;;;;;;;;;4962061;28;19925;-65
2022/02/24 11:20:37;;;;;;;;;;;;;;;;;;4968187;28;19918;-63
2022/02/24 11:23:03;;;;;;;;;;;;;;;;;;4960686;28;20309;-65
2022/02/24 11:25:29;;;;;;;;;;;;;;;;;;4952890;28;20407;-64
2022/02/24 11:27:55;;;;;;;;;;;;;;;;;;4963910;28;19918;-65
2022/02/24 11:30:25;;;;;;;;;;;;;;;;;;4967965;28;20624;-63
2022/02/24 11:32:51;;;;;;;;;;;;;;;;;;4959124;28;20046;-64
2022/02/24 11:35:17;;;;;;;;;;;;;;;;;;4953437;28;19972;-63
2022/02/24 11:37:45;;;;;;;;;;;;;;;;;;4963869;28;19914;-64
2022/02/24 11:40:11;;;;;;;;;;;;;;;;;;4960238;28;20282;-64
2022/02/24 11:42:37;;;;;;;;;;;;;;;;;;4967705;28;19921;-64
2022/02/24 11:45:03;;;;;;;;;;;;;;;;;;4946742;28;19922;-65
2022/02/24 11:47:29;;;;;;;;;;;;;;;;;;4952191;28;19942;-63
2022/02/24 11:49:59;;;;;;;;;;;;;;;;;;4960663;28;20004;-64
2022/02/24 11:52:26;;;;;;;;;;;;;;;;;;4965083;28;19925;-65
2022/02/24 11:54:51;;;;;;;;;;;;;;;;;;4959543;28;19922;-65
2022/02/24 11:57:17;;;;;;;;;;;;;;;;;;4968285;28;19922;-68
2022/02/24 11:59:44;;;;;;;;;;;;;;;;;;4966974;28;20331;-64
2022/02/24 12:02:10;;;;;;;;;;;;;;;;;;4964595;28;21017;-63
2022/02/24 12:04:36;;;;;;;;;;;;;;;;;;4966942;28;19922;-66
2022/02/24 12:07:04;;;;;;;;;;;;;;;;;;4960145;28;19928;-65
2022/02/24 12:09:32;;;;;;;;;;;;;;;;;;4964494;28;19918;-66
2022/02/24 12:11:58;;;;;;;;;;;;;;;;;;4945730;28;19925;-65
2022/02/24 12:14:24;;;;;;;;;;;;;;;;;;4965529;28;20392;-66
2022/02/24 12:16:50;;;;;;;;;;;;;;;;;;4963058;28;19930;-65
2022/02/24 12:19:17;;;;;;;;;;;;;;;;;;4963199;28;19925;-65
2022/02/24 12:21:47;;;;;;;;;;;;;;;;;;4960502;28;19925;-67
2022/02/24 12:24:13;;;;;;;;;;;;;;;;;;4964004;28;19956;-66
2022/02/24 12:26:41;;;;;;;;;;;;;;;;;;4962473;28;19922;-66
2022/02/24 12:29:06;;;;;;;;;;;;;;;;;;4941807;28;19914;-67
2022/02/24 12:31:32;;;;;;;;;;;;;;;;;;4966451;28;19921;-67
2022/02/24 12:33:58;;;;;;;;;;;;;;;;;;4942415;28;19972;-65
2022/02/24 12:36:26;;;;;;;;;;;;;;;;;;4962864;28;19944;-66
2022/02/24 12:38:53;;;;;;;;;;;;;;;;;;4957809;28;19929;-66
2022/02/24 12:41:19;;;;;;;;;;;;;;;;;;4963349;28;19944;-65
2022/02/24 12:43:45;;;;;;;;;;;;;;;;;;4948794;28;20159;-65
2022/02/24 12:46:13;;;;;;;;;;;;;;;;;;4959165;28;19957;-68
2022/02/24 12:48:39;;;;;;;;;;;;;;;;;;4949977;28;20008;-68
2022/02/24 12:51:07;;;;;;;;;;;;;;;;;;4960781;28;19940;-68
2022/02/24 12:53:33;;;;;;;;;;;;;;;;;;4947748;28;20412;-69
2022/02/24 12:56:00;;;;;;;;;;;;;;;;;;4943854;28;19980;-68
2022/02/24 12:58:26;;;;;;;;;;;;;;;;;;4952843;28;19929;-64
2022/02/24 13:00:52;;;;;;;;;;;;;;;;;;4959384;28;20234;-70
2022/02/24 13:03:20;;;;;;;;;;;;;;;;;;4966116;28;19922;-68
2022/02/24 13:05:48;;;;;;;;;;;;;;;;;;4965899;28;19953;-69
2022/02/24 13:10:58;;;;;;;;;;;;;;;;;;4959994;28;19924;-69
2022/02/24 13:13:25;;;;;;;;;;;;;;;;;;4965092;28;19918;-69
2022/02/24 13:15:53;;;;;;;;;;;;;;;;;;4961063;28;19922;-70
2022/02/24 13:18:19;;;;;;;;;;;;;;;;;;4963007;28;20012;-64
2022/02/24 13:20:45;;;;;;;;;;;;;;;;;;4962808;28;19925;-65
2022/02/24 13:23:11;;;;;;;;;;;;;;;;;;4958900;28;20553;-65
2022/02/24 13:25:36;;;;;;;;;;;;;;;;;;4949649;28;19925;-66
2022/02/24 13:28:02;;;;;;;;;;;;;;;;;;4959056;28;19969;-65
2022/02/24 13:30:28;;;;;;;;;;;;;;;;;;4962463;28;20021;-65
2022/02/24 13:32:56;;;;;;;;;;;;;;;;;;4953249;28;20435;-65
2022/02/24 13:35:22;;;;;;;;;;;;;;;;;;4959116;28;19918;-63
2022/02/24 13:37:49;;;;;;;;;;;;;;;;;;4964282;28;20532;-64
2022/02/24 13:40:15;;;;;;;;;;;;;;;;;;4962276;28;19941;-64
2022/02/24 13:42:41;;;;;;;;;;;;;;;;;;4965119;28;19922;-64
2022/02/24 13:45:08;;;;;;;;;;;;;;;;;;4943609;28;19933;-65
2022/02/24 13:47:34;;;;;;;;;;;;;;;;;;4947189;28;19946;-64
2022/02/24 13:50:00;;;;;;;;;;;;;;;;;;4959637;28;20013;-64
2022/02/24 13:52:27;;;;;;;;;;;;;;;;;;4961011;28;19921;-64
2022/02/24 13:54:54;;;;;;;;;;;;;;;;;;4962051;28;19918;-63
2022/02/24 13:57:20;;;;;;;;;;;;;;;;;;4944693;28;20009;-65
2022/02/24 13:59:46;;;;;;;;;;;;;;;;;;4964211;28;20024;-68
2022/02/24 14:02:16;;;;;;;;;;;;;;;;;;4957962;28;19922;-68
2022/02/24 14:04:43;;;;;;;;;;;;;;;;;;4964100;28;19922;-67
2022/02/24 14:07:11;;;;;;;;;;;;;;;;;;4957634;28;19980;-67
2022/02/24 14:09:40;;;;;;;;;;;;;;;;;;4958851;28;19914;-67
2022/02/24 14:12:08;;;;;;;;;;;;;;;;;;4954298;28;20016;-68
2022/02/24 14:14:37;;;;;;;;;;;;;;;;;;4960413;28;19922;-67
2022/02/24 14:17:04;;;;;;;;;;;;;;;;;;4955191;28;20426;-68
2022/02/24 14:19:30;;;;;;;;;;;;;;;;;;4959778;28;19922;-67
2022/02/24 14:21:55;;;;;;;;;;;;;;;;;;4958967;28;20294;-67
2022/02/24 14:24:22;;;;;;;;;;;;;;;;;;4965378;28;19932;-68
2022/02/24 14:26:50;;;;;;;;;;;;;;;;;;4963073;28;20368;-68
2022/02/24 14:29:19;;;;;;;;;;;;;;;;;;4961243;28;20008;-66
2022/02/24 14:31:45;;;;;;;;;;;;;;;;;;4963849;28;19948;-64
2022/02/24 14:34:11;;;;;;;;;;;;;;;;;;4956662;28;19918;-68
2022/02/24 14:36:37;;;;;;;;;;;;;;;;;;4963172;28;19917;-68
2022/02/24 14:39:05;;;;;;;;;;;;;;;;;;4959328;28;19922;-68
2022/02/24 14:41:32;;;;;;;;;;;;;;;;;;4951044;28;20630;-71
2022/02/24 14:43:58;;;;;;;;;;;;;;;;;;4959639;28;23461;-67
2022/02/24 14:46:24;;;;;;;;;;;;;;;;;;4961767;28;20016;-69
2022/02/24 14:48:50;;;;;;;;;;;;;;;;;;4962030;28;19929;-69
2022/02/24 14:51:16;;;;;;;;;;;;;;;;;;4965475;28;19918;-68
2022/02/24 14:53:42;;;;;;;;;;;;;;;;;;4966371;28;20111;-68
2022/02/24 14:56:08;;;;;;;;;;;;;;;;;;4946907;28;19972;-68
2022/02/24 14:58:34;;;;;;;;;;;;;;;;;;4966442;28;20421;-68
2022/02/24 15:01:00;;;;;;;;;;;;;;;;;;4962136;28;19922;-68
2022/02/24 15:03:26;;;;;;;;;;;;;;;;;;4966246;28;19922;-68
2022/02/24 15:05:52;;;;;;;;;;;;;;;;;;4946269;28;19964;-68
2022/02/24 15:08:20;;;;;;;;;;;;;;;;;;4966881;28;19918;-70
2022/02/24 15:10:48;;;;;;;;;;;;;;;;;;4966146;28;19976;-69
2022/02/24 15:13:14;;;;;;;;;;;;;;;;;;4960715;28;19953;-68
2022/02/24 15:15:41;;;;;;;;;;;;;;;;;;4965916;28;19926;-68
2022/02/24 15:18:09;;;;;;;;;;;;;;;;;;4945588;28;19918;-68
2022/02/24 15:20:34;;;;;;;;;;;;;;;;;;4967735;28;19925;-68
2022/02/24 15:23:00;;;;;;;;;;;;;;;;;;4962317;28;19933;-67
2022/02/24 15:25:27;;;;;;;;;;;;;;;;;;4964562;28;20475;-68
2022/02/24 15:27:54;;;;;;;;;;;;;;;;;;4958213;28;19918;-68
2022/02/24 15:30:21;;;;;;;;;;;;;;;;;;4963835;28;19917;-67
2022/02/24 15:32:47;;;;;;;;;;;;;;;;;;4951381;28;20794;-67
2022/02/24 15:35:14;;;;;;;;;;;;;;;;;;4958391;28;20207;-68
2022/02/24 15:37:41;;;;;;;;;;;;;;;;;;4948966;28;19922;-68
2022/02/24 15:40:09;;;;;;;;;;;;;;;;;;4959998;28;19917;-68
2022/02/24 15:42:35;;;;;;;;;;;;;;;;;;4962513;28;20012;-68
2022/02/24 15:45:02;;;;;;;;;;;;;;;;;;4959836;28;19928;-69
2022/02/24 15:47:29;;;;;;;;;;;;;;;;;;4947244;28;20017;-67
2022/02/24 15:49:58;;;;;;;;;;;;;;;;;;4958729;28;19924;-67
2022/02/24 15:52:24;;;;;;;;;;;;;;;;;;4962056;28;19922;-67
2022/02/24 15:54:50;;;;;;;;;;;;;;;;;;4946004;28;19918;-71
2022/02/24 15:57:16;;;;;;;;;;;;;;;;;;4962797;28;19949;-66
2022/02/24 15:59:43;;;;;;;;;;;;;;;;;;4961226;28;19954;-67
2022/02/24 16:02:09;;;;;;;;;;;;;;;;;;4957939;28;19925;-67
2022/02/24 16:04:35;;;;;;;;;;;;;;;;;;4964972;28;19922;-69
2022/02/24 16:07:02;;;;;;;;;;;;;;;;;;4957750;28;20380;-68
2022/02/24 16:09:28;;;;;;;;;;;;;;;;;;4963793;28;19922;-67
2022/02/24 16:11:54;;;;;;;;;;;;;;;;;;4940348;28;19928;-68
2022/02/24 16:14:20;;;;;;;;;;;;;;;;;;4961240;28;19917;-69
2022/02/24 16:16:46;;;;;;;;;;;;;;;;;;4960846;28;19957;-70
2022/02/24 16:19:12;;;;;;;;;;;;;;;;;;4958537;28;19925;-68
2022/02/24 16:21:38;;;;;;;;;;;;;;;;;;4961312;28;20004;-68
2022/02/24 16:24:06;;;;;;;;;;;;;;;;;;4957462;28;19930;-67
2022/02/24 16:26:35;;;;;;;;;;;;;;;;;;4961645;28;19918;-68
2022/02/24 16:29:02;;;;;;;;;;;;;;;;;;4956203;28;19937;-68
2022/02/24 16:31:28;;;;;;;;;;;;;;;;;;4962152;28;20040;-68
2022/02/24 16:33:54;;;;;;;;;;;;;;;;;;4959621;28;20029;-66
2022/02/24 16:36:20;;;;;;;;;;;;;;;;;;4946233;28;20556;-67
2022/02/24 16:38:46;;;;;;;;;;;;;;;;;;4961619;28;19929;-68
2022/02/24 16:41:13;;;;;;;;;;;;;;;;;;4957423;28;20173;-67
2022/02/24 16:43:39;;;;;;;;;;;;;;;;;;4959860;28;19963;-67
2022/02/24 16:46:06;;;;;;;;;;;;;;;;;;4957714;28;19961;-67